Time;durP1;ratioP1;P1;durP2;ratioP2;P2;SDS_P1;SDS_P2;PMS_P1;PMS_P2;Temp;Humidity;BMP_temperature;BMP_pressure;BME280_temperature;BME280_humidity;BME280_pressure;Samples;Min_cycle;Max_cycle;Signal;HPM_P1;HPM_P2
2022/11/08 00:01:35;;;;;;;36.33;23.25;;;13.60;99.90;;;;;;5077741;28;20046;-51
2022/11/08 00:04:05;;;;;;;34.75;22.23;;;13.60;99.90;;;;;;5082478;28;20078;-52
2022/11/08 00:14:47;;;;;;;43.95;29.95;;;13.60;99.90;;;;;;5050656;28;20183;-51
2022/11/08 00:17:14;;;;;;;47.35;30.05;;;13.60;99.90;;;;;;5044139;28;20025;-51
2022/11/08 00:19:41;;;;;;;56.53;39.63;;;13.70;99.90;;;;;;5047382;28;20048;-51
2022/11/08 00:22:08;;;;;;;62.15;39.67;;;13.70;99.90;;;;;;5043603;28;20063;-52
2022/11/08 00:24:33;;;;;;;45.33;30.52;;;13.70;99.90;;;;;;5042648;28;20143;-50
2022/11/08 00:27:00;;;;;;;43.03;28.23;;;;;;;;;;5041903;28;20061;-50
2022/11/08 00:29:25;;;;;;;39.05;26.08;;;13.80;99.90;;;;;;5024008;28;20048;-51
2022/11/08 00:31:51;;;;;;;49.95;30.40;;;13.60;99.90;;;;;;5044325;28;20042;-51
2022/11/08 00:34:17;;;;;;;51.92;33.22;;;13.50;99.90;;;;;;5039153;28;20067;-52
2022/11/08 00:36:42;;;;;;;47.28;29.88;;;13.60;99.90;;;;;;5048554;28;20033;-51
2022/11/08 00:39:09;;;;;;;42.33;27.05;;;;;;;;;;5085439;28;20031;-51
2022/11/08 00:41:35;;;;;;;40.80;26.05;;;13.60;99.90;;;;;;5066386;28;20031;-50
2022/11/08 00:44:01;;;;;;;49.42;31.98;;;;;;;;;;5059350;28;20045;-51
2022/11/08 00:46:27;;;;;;;45.40;30.20;;;12.80;99.90;;;;;;5075290;28;20067;-51
2022/11/08 00:48:53;;;;;;;42.78;26.83;;;12.90;99.90;;;;;;5046951;28;20457;-51
2022/11/08 00:51:18;;;;;;;44.65;29.30;;;13.10;99.90;;;;;;5073333;28;20033;-51
2022/11/08 00:53:44;;;;;;;50.63;35.40;;;13.20;99.90;;;;;;5073368;28;20391;-51
2022/11/08 00:56:12;;;;;;;43.55;27.10;;;13.30;99.90;;;;;;5058282;28;20106;-51
2022/11/08 00:58:38;;;;;;;36.15;23.70;;;13.30;99.90;;;;;;5074974;28;20044;-51
2022/11/08 01:01:12;;;;;;;38.33;24.92;;;13.30;99.90;;;;;;5078949;28;20496;-51
2022/11/08 01:03:37;;;;;;;35.28;23.83;;;13.10;99.90;;;;;;5031272;28;20032;-51
2022/11/08 01:06:05;;;;;;;32.78;22.27;;;13.00;99.90;;;;;;5079671;28;20112;-51
2022/11/08 01:08:31;;;;;;;40.97;24.55;;;13.20;99.90;;;;;;5085934;28;20035;-52
2022/11/08 01:11:01;;;;;;;35.95;23.48;;;13.30;99.90;;;;;;5079014;28;20602;-51
2022/11/08 01:13:27;;;;;;;37.65;23.45;;;13.40;99.90;;;;;;5071171;28;20033;-51
2022/11/08 01:15:53;;;;;;;32.65;22.90;;;13.40;99.90;;;;;;5079505;28;20031;-51
2022/11/08 01:18:19;;;;;;;38.20;23.58;;;13.40;99.90;;;;;;5050911;28;20423;-50
2022/11/08 01:20:47;;;;;;;35.35;23.02;;;13.50;99.90;;;;;;5075271;28;20103;-51
2022/11/08 01:23:13;;;;;;;36.70;23.50;;;13.40;99.90;;;;;;5082230;28;20024;-52
2022/11/08 01:25:42;;;;;;;37.85;23.65;;;13.20;99.90;;;;;;5077809;28;20460;-50
2022/11/08 01:28:09;;;;;;;37.08;23.77;;;12.80;99.90;;;;;;5070412;28;20032;-51
2022/11/08 01:30:36;;;;;;;38.10;24.60;;;12.70;99.90;;;;;;5072146;28;20351;-51
2022/11/08 01:33:02;;;;;;;34.28;23.50;;;12.50;99.90;;;;;;5082066;28;20115;-51
2022/11/08 01:35:33;;;;;;;35.97;24.33;;;12.60;99.90;;;;;;5078260;28;20485;-51
2022/11/08 01:37:59;;;;;;;36.78;23.67;;;12.70;99.90;;;;;;5074490;28;20559;-51
2022/11/08 01:40:27;;;;;;;37.95;25.00;;;12.60;99.90;;;;;;5067286;28;20059;-50
2022/11/08 01:42:53;;;;;;;40.63;26.13;;;12.60;99.90;;;;;;5079369;28;20033;-51
2022/11/08 01:45:56;;;;;;;46.58;27.98;;;12.80;99.90;;;;;;5078306;28;20027;-51
2022/11/08 01:48:24;;;;;;;40.78;25.13;;;13.00;99.90;;;;;;5076367;28;20036;-51
2022/11/08 01:50:51;;;;;;;36.17;22.83;;;13.00;99.90;;;;;;5078957;28;20072;-51
2022/11/08 01:53:17;;;;;;;37.83;22.67;;;12.90;99.90;;;;;;5076456;28;20496;-51
2022/11/08 01:55:44;;;;;;;44.30;25.48;;;13.10;99.90;;;;;;5073840;28;20021;-51
2022/11/08 01:58:17;;;;;;;43.90;27.02;;;13.10;99.90;;;;;;5080165;28;20169;-51
2022/11/08 02:00:42;;;;;;;39.50;24.20;;;13.10;99.90;;;;;;5082922;28;20078;-51
2022/11/08 02:03:12;;;;;;;39.30;22.58;;;13.20;99.90;;;;;;5077876;28;20025;-51
2022/11/08 02:05:39;;;;;;;41.70;24.63;;;13.20;99.90;;;;;;5077290;28;20492;-51
2022/11/08 02:08:06;;;;;;;37.50;23.08;;;13.20;99.90;;;;;;5077224;28;20028;-51
2022/11/08 02:10:41;;;;;;;33.88;22.98;;;13.30;99.90;;;;;;5065978;28;20093;-51
2022/11/08 02:13:14;;;;;;;35.20;23.98;;;13.30;99.90;;;;;;5077383;28;20017;-51
2022/11/08 02:15:40;;;;;;;35.92;23.17;;;13.40;99.90;;;;;;5075723;28;20037;-51
2022/11/08 02:18:06;;;;;;;33.08;23.52;;;13.50;99.90;;;;;;5081721;28;20037;-51
2022/11/08 02:20:35;;;;;;;39.33;23.65;;;13.50;99.90;;;;;;5081485;28;20146;-51
2022/11/08 02:23:20;;;;;;;39.58;23.98;;;13.50;99.90;;;;;;5078879;28;20064;-51
2022/11/08 02:25:46;;;;;;;34.00;23.10;;;13.50;99.90;;;;;;5036920;28;20033;-51
2022/11/08 02:28:12;;;;;;;33.70;22.27;;;13.50;99.90;;;;;;5081598;28;21078;-51
2022/11/08 02:30:38;;;;;;;30.92;21.85;;;13.50;99.90;;;;;;5073474;28;20089;-51
2022/11/08 02:33:21;;;;;;;35.40;23.00;;;13.50;99.90;;;;;;5078276;28;20042;-51
2022/11/08 02:35:55;;;;;;;36.38;22.77;;;13.50;99.90;;;;;;5067949;28;20032;-51
2022/11/08 02:38:24;;;;;;;38.50;24.25;;;13.50;99.90;;;;;;5084663;28;20075;-51
2022/11/08 02:40:51;;;;;;;34.33;23.45;;;13.50;99.90;;;;;;5075193;28;20441;-51
2022/11/08 02:43:18;;;;;;;35.83;23.83;;;13.50;99.90;;;;;;5077129;28;20029;-51
2022/11/08 02:45:44;;;;;;;35.83;24.98;;;13.50;99.90;;;;;;5065481;28;20399;-52
2022/11/08 02:48:10;;;;;;;38.30;24.30;;;13.50;99.90;;;;;;5071967;28;20060;-51
2022/11/08 02:50:36;;;;;;;35.92;24.95;;;13.50;99.90;;;;;;5076832;28;20019;-50
2022/11/08 02:53:02;;;;;;;37.97;23.73;;;13.50;99.90;;;;;;5079512;28;20025;-51
2022/11/08 02:55:28;;;;;;;35.63;24.77;;;13.50;99.90;;;;;;5084315;28;20033;-51
2022/11/08 02:57:55;;;;;;;39.72;25.10;;;13.40;99.90;;;;;;5077109;28;20028;-51
2022/11/08 03:00:20;;;;;;;36.97;25.40;;;13.40;99.90;;;;;;5079742;28;20062;-51
2022/11/08 03:02:50;;;;;;;49.97;30.55;;;13.50;99.90;;;;;;5081152;28;20075;-51
2022/11/08 03:05:19;;;;;;;41.53;27.23;;;13.50;99.90;;;;;;5076515;28;20520;-51
2022/11/08 03:07:45;;;;;;;38.00;24.38;;;13.50;99.90;;;;;;5052275;28;20041;-50
2022/11/08 03:10:12;;;;;;;39.15;24.40;;;;;;;;;;5078487;28;20038;-51
2022/11/08 03:12:38;;;;;;;36.33;23.15;;;13.50;99.90;;;;;;5080812;28;20063;-50
2022/11/08 03:15:05;;;;;;;42.58;25.48;;;13.60;99.90;;;;;;5078106;28;20075;-53
2022/11/08 03:17:31;;;;;;;33.03;22.80;;;13.60;99.90;;;;;;5011362;28;20515;-53
2022/11/08 03:19:56;;;;;;;32.88;21.40;;;13.60;99.90;;;;;;5077406;28;20032;-50
2022/11/08 03:22:22;;;;;;;32.65;22.00;;;13.60;99.90;;;;;;5084819;28;20025;-51
2022/11/08 03:24:48;;;;;;;34.05;21.73;;;13.60;99.90;;;;;;5083828;28;20056;-51
2022/11/08 03:27:14;;;;;;;31.33;21.45;;;13.70;99.90;;;;;;5078720;28;20032;-51
2022/11/08 03:29:41;;;;;;;34.38;22.25;;;13.60;99.90;;;;;;5074850;28;20025;-50
2022/11/08 03:32:06;;;;;;;30.33;20.85;;;13.60;99.90;;;;;;5079125;28;20043;-51
2022/11/08 03:34:32;;;;;;;28.70;21.13;;;13.60;99.90;;;;;;5071006;28;20016;-51
2022/11/08 03:36:58;;;;;;;32.67;21.92;;;13.70;99.90;;;;;;5066304;28;20094;-51
2022/11/08 03:39:24;;;;;;;31.95;20.90;;;13.60;99.90;;;;;;5074884;28;20086;-51
2022/11/08 03:41:49;;;;;;;27.30;20.55;;;13.60;99.90;;;;;;5071813;28;20039;-50
2022/11/08 03:44:15;;;;;;;32.72;20.45;;;13.60;99.90;;;;;;5075854;28;20021;-51
2022/11/08 03:46:41;;;;;;;33.92;20.80;;;13.60;99.90;;;;;;5055415;28;20048;-51
2022/11/08 03:49:06;;;;;;;31.30;20.02;;;13.60;99.90;;;;;;5070505;28;20069;-51
2022/11/08 03:51:32;;;;;;;29.65;21.05;;;13.50;99.90;;;;;;5084627;28;20034;-51
2022/11/08 03:53:58;;;;;;;29.20;20.35;;;13.50;99.90;;;;;;5077143;28;20056;-51
2022/11/08 03:56:24;;;;;;;31.65;20.73;;;13.50;99.90;;;;;;5076591;28;20033;-51
2022/11/08 03:58:50;;;;;;;32.08;21.67;;;13.60;99.90;;;;;;5015515;28;20044;-50
2022/11/08 04:01:15;;;;;;;33.20;21.38;;;13.50;99.90;;;;;;5073450;28;20024;-50
2022/11/08 04:03:41;;;;;;;34.58;21.25;;;13.50;99.90;;;;;;5077875;28;20036;-51
2022/11/08 04:06:07;;;;;;;34.05;20.60;;;13.50;99.90;;;;;;5079067;28;20035;-51
2022/11/08 04:08:33;;;;;;;42.25;25.02;;;13.50;99.90;;;;;;5080714;28;20484;-51
2022/11/08 04:16:31;;;;;;;35.65;22.80;;;12.50;99.90;;;;;;5080514;28;20039;-51
2022/11/08 04:21:44;;;;;;;35.25;21.52;;;12.00;99.90;;;;;;5067944;28;20487;-51
2022/11/08 04:24:09;;;;;;;29.45;19.08;;;11.90;99.90;;;;;;5073446;28;20043;-53
2022/11/08 04:26:35;;;;;;;28.92;18.05;;;11.70;99.90;;;;;;5061636;28;20032;-52
2022/11/08 04:29:03;;;;;;;32.85;20.70;;;11.60;99.90;;;;;;5077349;28;20032;-52
2022/11/08 04:31:29;;;;;;;31.90;20.17;;;11.60;99.90;;;;;;5075779;28;20039;-52
2022/11/08 04:33:55;;;;;;;31.83;19.25;;;11.60;99.90;;;;;;5078319;28;20032;-52
2022/11/08 04:36:20;;;;;;;34.72;21.90;;;11.70;99.90;;;;;;5082440;28;20519;-52
2022/11/08 04:38:49;;;;;;;38.65;22.70;;;11.80;99.90;;;;;;5056399;28;20040;-52
2022/11/08 04:41:16;;;;;;;41.95;23.27;;;12.00;99.90;;;;;;5069536;28;20029;-52
2022/11/08 04:43:42;;;;;;;39.15;23.67;;;12.10;99.90;;;;;;5060014;28;20089;-52
2022/11/08 04:46:13;;;;;;;40.35;24.58;;;12.20;99.90;;;;;;5075245;28;20480;-53
2022/11/08 04:48:39;;;;;;;38.47;21.23;;;12.30;99.90;;;;;;5067915;28;20032;-52
2022/11/08 04:51:05;;;;;;;38.03;22.17;;;12.40;99.90;;;;;;5080377;28;20027;-52
2022/11/08 04:53:31;;;;;;;38.72;22.75;;;12.50;99.90;;;;;;5081350;28;20037;-52
2022/11/08 04:56:14;;;;;;;45.03;25.95;;;;;;;;;;5080332;28;20021;-53
2022/11/08 04:58:45;;;;;;;44.03;24.38;;;12.90;99.90;;;;;;5081536;28;20039;-52
2022/11/08 05:01:14;;;;;;;39.05;22.05;;;12.90;99.90;;;;;;5076789;28;20165;-53
2022/11/08 05:03:40;;;;;;;32.92;21.08;;;;;;;;;;5072383;28;20372;-52
2022/11/08 05:06:07;;;;;;;34.53;19.70;;;;;;;;;;5068115;28;20048;-52
2022/11/08 05:08:34;;;;;;;34.30;20.83;;;;;;;;;;5104637;28;20028;-52
2022/11/08 05:11:19;;;;;;;32.92;19.92;;;;;;;;;;5073259;28;20090;-52
2022/11/08 05:13:46;;;;;;;39.13;21.67;;;13.30;99.90;;;;;;5081463;28;20370;-52
2022/11/08 05:16:17;;;;;;;39.40;20.98;;;13.30;99.90;;;;;;5072838;28;20041;-53
2022/11/08 05:18:42;;;;;;;29.90;20.63;;;13.40;99.90;;;;;;5084932;28;20040;-53
2022/11/08 05:23:56;;;;;;;33.20;20.00;;;13.40;99.90;;;;;;5072531;28;20122;-52
2022/11/08 05:26:22;;;;;;;33.90;18.13;;;13.50;99.90;;;;;;5076457;28;20036;-53
2022/11/08 05:28:47;;;;;;;32.72;19.88;;;13.40;99.90;;;;;;5088464;28;20493;-52
2022/11/08 05:31:14;;;;;;;33.83;20.02;;;13.30;99.90;;;;;;5065009;28;20052;-52
2022/11/08 05:33:39;;;;;;;35.03;22.98;;;13.20;99.90;;;;;;5084005;28;20078;-53
2022/11/08 05:36:11;;;;;;;37.30;22.60;;;13.30;99.90;;;;;;5072775;28;20021;-52
2022/11/08 05:38:38;;;;;;;31.63;20.65;;;13.30;99.90;;;;;;5055074;28;20055;-52
2022/11/08 05:41:10;;;;;;;30.33;20.40;;;13.30;99.90;;;;;;5083584;28;20039;-52
2022/11/08 05:43:36;;;;;;;28.45;19.98;;;13.30;99.90;;;;;;5075900;28;20111;-52
2022/11/08 05:46:02;;;;;;;34.20;20.58;;;13.10;99.90;;;;;;5077899;28;20467;-52
2022/11/08 05:48:28;;;;;;;32.47;20.15;;;13.10;99.90;;;;;;5080180;28;20029;-53
2022/11/08 05:50:54;;;;;;;35.55;21.88;;;13.10;99.90;;;;;;5072494;28;20115;-52
2022/11/08 05:53:20;;;;;;;39.90;21.42;;;12.90;99.90;;;;;;5078062;28;20111;-52
2022/11/08 05:55:46;;;;;;;34.33;21.20;;;12.80;99.90;;;;;;5078190;28;20467;-52
2022/11/08 05:58:12;;;;;;;31.85;19.48;;;12.80;99.90;;;;;;5064045;28;20064;-52
2022/11/08 06:00:37;;;;;;;31.80;21.73;;;12.90;99.90;;;;;;5070210;28;20396;-52
2022/11/08 06:03:04;;;;;;;34.25;20.65;;;13.00;99.90;;;;;;5072134;28;20081;-52
2022/11/08 06:05:31;;;;;;;32.70;19.55;;;13.10;99.90;;;;;;5077976;28;20048;-53
2022/11/08 06:07:57;;;;;;;34.88;20.88;;;13.10;99.90;;;;;;5076637;28;20020;-56
2022/11/08 06:10:23;;;;;;;32.53;18.98;;;13.20;99.90;;;;;;5067996;28;20021;-56
2022/11/08 06:12:49;;;;;;;31.00;20.90;;;12.90;99.90;;;;;;5047904;28;20040;-53
2022/11/08 06:15:15;;;;;;;38.38;23.83;;;12.90;99.90;;;;;;5076308;28;20403;-56
2022/11/08 06:17:40;;;;;;;38.15;23.23;;;13.10;99.90;;;;;;5073273;28;20028;-55
2022/11/08 06:20:08;;;;;;;87.03;50.83;;;13.20;99.90;;;;;;5068053;28;20047;-56
2022/11/08 06:22:34;;;;;;;132.80;74.78;;;13.30;99.90;;;;;;5075345;28;20123;-53
2022/11/08 06:25:00;;;;;;;72.88;43.67;;;13.40;99.90;;;;;;5074232;28;20040;-53
2022/11/08 06:27:26;;;;;;;33.70;21.73;;;13.50;99.90;;;;;;5069226;28;20067;-54
2022/11/08 06:29:52;;;;;;;34.95;21.35;;;13.40;99.90;;;;;;5069596;28;20028;-53
2022/11/08 06:32:18;;;;;;;34.13;22.70;;;13.40;99.90;;;;;;5070558;28;20055;-53
2022/11/08 06:34:45;;;;;;;34.42;22.17;;;13.50;99.90;;;;;;5056324;28;20040;-53
2022/11/08 06:37:11;;;;;;;38.13;23.90;;;13.50;99.90;;;;;;5076078;28;20457;-53
2022/11/08 06:39:37;;;;;;;36.17;22.77;;;13.50;99.90;;;;;;5080128;28;20128;-53
2022/11/08 06:42:03;;;;;;;36.85;23.23;;;13.50;99.90;;;;;;5059352;28;20119;-53
2022/11/08 06:44:29;;;;;;;31.80;22.90;;;13.70;99.90;;;;;;5086735;28;20050;-52
2022/11/08 06:46:54;;;;;;;32.45;21.60;;;13.70;99.90;;;;;;5081009;28;20081;-53
2022/11/08 06:49:24;;;;;;;36.95;21.08;;;13.70;99.90;;;;;;5066231;28;20029;-53
2022/11/08 06:51:50;;;;;;;35.53;21.75;;;13.70;99.90;;;;;;5078710;28;20028;-53
2022/11/08 06:54:17;;;;;;;31.60;21.42;;;13.70;99.90;;;;;;5077585;28;20036;-54
2022/11/08 06:56:43;;;;;;;33.85;21.13;;;13.60;99.90;;;;;;5080733;28;20028;-53
2022/11/08 06:59:08;;;;;;;33.50;22.33;;;13.40;99.90;;;;;;5072939;28;20476;-54
2022/11/08 07:01:35;;;;;;;39.63;23.70;;;13.40;99.90;;;;;;5057341;28;20376;-53
2022/11/08 07:04:01;;;;;;;32.60;22.38;;;13.50;99.90;;;;;;5074606;28;20056;-54
2022/11/08 07:06:27;;;;;;;33.53;22.42;;;13.70;99.90;;;;;;5085261;28;20032;-54
2022/11/08 07:08:53;;;;;;;32.13;22.38;;;13.80;99.90;;;;;;5082572;28;20017;-52
2022/11/08 07:11:18;;;;;;;31.40;22.10;;;13.80;99.90;;;;;;5083530;28;20483;-53
2022/11/08 07:13:46;;;;;;;33.25;22.42;;;;;;;;;;5081657;28;20031;-54
2022/11/08 07:16:12;;;;;;;38.53;23.55;;;13.70;99.90;;;;;;5079022;28;20542;-52
2022/11/08 07:18:38;;;;;;;31.55;21.30;;;13.70;99.90;;;;;;5078560;28;20383;-53
2022/11/08 07:21:04;;;;;;;34.38;23.20;;;13.80;99.90;;;;;;5081243;28;20103;-53
2022/11/08 07:23:31;;;;;;;36.20;22.95;;;14.00;99.90;;;;;;5049949;28;20047;-53
2022/11/08 07:26:02;;;;;;;34.78;23.20;;;13.90;99.90;;;;;;5049478;28;20043;-52
2022/11/08 07:28:28;;;;;;;34.83;24.02;;;13.90;99.90;;;;;;5049002;28;20379;-52
2022/11/08 07:30:58;;;;;;;33.97;21.92;;;14.10;99.90;;;;;;5045240;28;20029;-52
2022/11/08 07:33:24;;;;;;;37.55;21.10;;;14.10;99.90;;;;;;5049865;28;20455;-52
2022/11/08 07:35:49;;;;;;;33.88;22.33;;;14.10;99.90;;;;;;5017887;28;20033;-52
2022/11/08 07:38:15;;;;;;;37.15;23.48;;;14.20;99.90;;;;;;5047515;28;20136;-54
2022/11/08 07:40:41;;;;;;;35.75;23.00;;;14.30;99.90;;;;;;5018035;28;20041;-53
2022/11/08 07:43:07;;;;;;;34.85;23.83;;;14.30;99.90;;;;;;5050432;28;20046;-53
2022/11/08 07:45:32;;;;;;;37.47;24.98;;;14.40;99.90;;;;;;5048766;28;20065;-52
2022/11/08 07:48:04;;;;;;;39.72;25.63;;;14.30;99.90;;;;;;5045258;28;20150;-52
2022/11/08 07:50:30;;;;;;;38.53;25.85;;;14.10;99.90;;;;;;5001414;28;20040;-52
2022/11/08 07:52:57;;;;;;;34.40;24.27;;;14.10;99.90;;;;;;5049969;28;20045;-52
2022/11/08 07:55:23;;;;;;;39.10;26.02;;;14.30;99.90;;;;;;5077505;28;20040;-52
2022/11/08 07:57:49;;;;;;;35.33;23.92;;;14.20;99.90;;;;;;5074215;28;20086;-53
2022/11/08 08:00:15;;;;;;;38.55;25.73;;;14.00;99.90;;;;;;5081787;28;20491;-52
2022/11/08 08:02:41;;;;;;;38.63;24.98;;;14.10;99.90;;;;;;5066700;28;20081;-54
2022/11/08 08:05:07;;;;;;;30.42;20.75;;;14.20;99.90;;;;;;5068146;28;20045;-58
2022/11/08 08:07:36;;;;;;;34.60;24.38;;;14.00;99.90;;;;;;5070981;28;20031;-54
2022/11/08 08:10:03;;;;;;;36.35;25.73;;;14.20;99.90;;;;;;5070243;28;20127;-56
2022/11/08 08:12:28;;;;;;;36.85;23.85;;;14.50;99.90;;;;;;5053072;28;20521;-54
2022/11/08 08:14:55;;;;;;;37.55;24.70;;;;;;;;;;5064229;28;20111;-52
2022/11/08 08:17:21;;;;;;;36.90;22.80;;;;;;;;;;5073207;28;20113;-58
2022/11/08 08:19:46;;;;;;;35.97;24.45;;;15.00;99.90;;;;;;5072008;28;20028;-54
2022/11/08 08:22:12;;;;;;;35.10;23.63;;;14.90;99.90;;;;;;5077419;28;20462;-56
2022/11/08 08:24:38;;;;;;;35.83;24.40;;;14.70;99.90;;;;;;5073738;28;20023;-54
2022/11/08 08:27:04;;;;;;;30.30;22.58;;;14.90;99.90;;;;;;5073381;28;20031;-55
2022/11/08 08:29:29;;;;;;;37.47;23.98;;;15.00;99.90;;;;;;5072943;28;20038;-53
2022/11/08 08:31:55;;;;;;;38.92;24.95;;;;;;;;;;5085719;28;20063;-55
2022/11/08 08:34:21;;;;;;;36.35;25.30;;;15.40;99.90;;;;;;5071428;28;20036;-56
2022/11/08 08:36:47;;;;;;;39.13;24.40;;;;;;;;;;5076865;28;20032;-52
2022/11/08 08:39:13;;;;;;;34.08;23.63;;;15.80;99.90;;;;;;5052947;28;20041;-51
2022/11/08 08:41:39;;;;;;;41.67;26.58;;;15.70;99.90;;;;;;5077682;28;20376;-59
2022/11/08 08:44:04;;;;;;;35.60;23.48;;;16.00;99.90;;;;;;5081834;28;20024;-54
2022/11/08 08:46:30;;;;;;;35.83;24.15;;;16.30;99.90;;;;;;5073859;28;20027;-52
2022/11/08 08:48:56;;;;;;;39.25;25.40;;;16.70;99.90;;;;;;5081564;28;20035;-56
2022/11/08 08:51:22;;;;;;;38.58;25.15;;;17.00;99.90;;;;;;5079637;28;20028;-54
2022/11/08 08:53:48;;;;;;;36.70;25.17;;;17.30;99.90;;;;;;5078465;28;20039;-54
2022/11/08 08:56:14;;;;;;;33.38;21.15;;;;;;;;;;5072745;28;20530;-55
2022/11/08 08:58:39;;;;;;;35.03;24.88;;;18.00;99.90;;;;;;5073406;28;20073;-54
2022/11/08 09:01:07;;;;;;;40.63;24.08;;;19.00;99.90;;;;;;5057016;28;20049;-55
2022/11/08 09:03:34;;;;;;;37.63;24.35;;;19.60;99.90;;;;;;5070141;28;20048;-53
2022/11/08 09:06:00;;;;;;;30.60;23.52;;;20.80;99.90;;;;;;5066443;28;20119;-54
2022/11/08 09:08:27;;;;;;;30.27;21.45;;;;;;;;;;5076788;28;20047;-52
2022/11/08 09:10:54;;;;;;;27.15;20.95;;;;;;;;;;5072591;28;20357;-56
2022/11/08 09:13:20;;;;;;;32.17;24.15;;;;;;;;;;5084557;28;20051;-62
2022/11/08 09:15:46;;;;;;;29.98;21.98;;;;;;;;;;5069152;28;20519;-54
2022/11/08 09:18:12;;;;;;;26.92;20.02;;;;;;;;;;5068753;28;20033;-51
2022/11/08 09:20:38;;;;;;;27.45;20.55;;;;;;;;;;5067155;28;20480;-53
2022/11/08 09:23:05;;;;;;;25.50;20.25;;;;;;;;;;5071498;28;20102;-55
2022/11/08 09:25:31;;;;;;;23.65;17.85;;;24.40;99.90;;;;;;5081279;28;20430;-52
2022/11/08 09:27:56;;;;;;;25.88;17.17;;;23.00;99.90;;;;;;5064748;28;20024;-52
2022/11/08 09:30:22;;;;;;;28.35;20.13;;;22.70;99.90;;;;;;5063799;28;20032;-57
2022/11/08 09:32:52;;;;;;;26.98;20.52;;;22.30;99.90;;;;;;5066820;28;20104;-56
2022/11/08 09:35:18;;;;;;;21.50;16.80;;;23.50;99.90;;;;;;5069760;28;20024;-57
2022/11/08 09:37:43;;;;;;;25.70;17.80;;;22.10;99.90;;;;;;5065946;28;20718;-54
2022/11/08 09:40:15;;;;;;;25.48;19.42;;;22.30;99.90;;;;;;5068557;28;20123;-59
2022/11/08 09:42:57;;;;;;;21.20;18.48;;;23.20;99.90;;;;;;5066938;28;20366;-60
2022/11/08 09:45:23;;;;;;;;;;;;;;;;;;5068360;28;20039;-60
2022/11/08 09:47:55;;;;;;;20.38;15.25;;;22.00;99.90;;;;;;5069586;28;19912;-59
2022/11/08 09:50:30;;;;;;;20.70;17.52;;;;;;;;;;5066704;28;20456;-53
2022/11/08 09:53:11;;;;;;;23.73;19.48;;;;;;;;;;5066717;28;20526;-51
2022/11/08 09:55:43;;;;;;;20.10;16.77;;;;;;;;;;5070309;28;20440;-55
2022/11/08 09:58:24;;;;;;;22.88;18.83;;;23.80;99.90;;;;;;5075393;28;20029;-52
2022/11/08 10:00:50;;;;;;;20.08;16.60;;;;;;;;;;5074796;28;20086;-54
2022/11/08 10:03:17;;;;;;;21.27;15.90;;;;;;;;;;5072629;28;20090;-51
2022/11/08 10:05:53;;;;;;;22.55;18.98;;;25.10;99.90;;;;;;5066030;28;20044;-49
2022/11/08 10:08:37;;;;;;;23.33;18.45;;;25.80;98.10;;;;;;5055007;28;20063;-53
2022/11/08 10:11:20;;;;;;;21.08;15.68;;;26.00;97.50;;;;;;5079079;28;20029;-51
2022/11/08 10:14:18;;;;;;;23.02;17.90;;;24.90;97.60;;;;;;5075256;28;21322;-51
2022/11/08 10:17:14;;;;;;;23.77;17.27;;;23.30;98.90;;;;;;5037430;28;20045;-58
2022/11/08 10:19:46;;;;;;;20.48;17.92;;;24.60;98.60;;;;;;5032191;28;20107;-50
2022/11/08 10:22:30;;;;;;;21.10;17.38;;;25.60;97.80;;;;;;4999944;28;20064;-58
2022/11/08 10:25:00;;;;;;;19.38;16.90;;;;;;;;;;5028240;28;20041;-50
2022/11/08 10:27:31;;;;;;;20.77;16.58;;;25.20;96.40;;;;;;5027376;28;20037;-56
2022/11/08 10:30:01;;;;;;;19.65;16.63;;;25.00;96.90;;;;;;5032864;28;20461;-51
2022/11/08 10:32:29;;;;;;;19.83;16.70;;;25.10;96.60;;;;;;5032605;28;20493;-50
2022/11/08 10:34:58;;;;;;;20.48;16.70;;;;;;;;;;4981259;28;20533;-58
2022/11/08 10:37:26;;;;;;;20.70;17.42;;;25.90;99.90;;;;;;4989933;28;20050;-55
2022/11/08 10:40:15;;;;;;;19.73;17.33;;;;;;;;;;4987350;28;20069;-54
2022/11/08 10:42:48;;;;;;;20.83;16.92;;;24.40;99.90;;;;;;4929342;29;20074;-51
2022/11/08 10:45:14;;;;;;;24.35;17.80;;;24.40;97.00;;;;;;4933891;29;20071;-50
2022/11/08 10:47:40;;;;;;;23.83;17.40;;;24.30;97.60;;;;;;4928355;29;20575;-48
2022/11/08 10:50:12;;;;;;;21.58;17.70;;;24.70;97.90;;;;;;4930023;29;20036;-51
2022/11/08 10:52:53;;;;;;;23.33;17.95;;;;;;;;;;4913467;29;20035;-58
2022/11/08 10:55:23;;;;;;;20.10;16.45;;;24.40;96.10;;;;;;4950646;29;20067;-58
2022/11/08 10:57:49;;;;;;;21.42;17.67;;;25.10;96.50;;;;;;4953543;29;20058;-58
2022/11/08 11:00:18;;;;;;;24.00;18.25;;;;;;;;;;4953417;29;20082;-58
2022/11/08 11:02:44;;;;;;;21.83;16.42;;;;;;;;;;4915079;29;20077;-60
2022/11/08 11:05:27;;;;;;;23.33;17.58;;;23.20;97.20;;;;;;4903199;29;20390;-60
2022/11/08 11:08:06;;;;;;;24.20;17.45;;;23.20;97.60;;;;;;4912617;29;20044;-57
2022/11/08 11:10:38;;;;;;;23.77;18.42;;;24.20;98.90;;;;;;4914884;29;20028;-54
2022/11/08 11:13:18;;;;;;;18.55;15.63;;;;;;;;;;4922964;29;20054;-60
2022/11/08 11:16:13;;;;;;;20.07;16.83;;;24.90;96.50;;;;;;4927968;29;20111;-57
2022/11/08 11:18:46;;;;;;;19.17;15.45;;;24.70;96.20;;;;;;4931778;28;20027;-58
2022/11/08 11:21:18;;;;;;;20.70;16.45;;;25.20;96.10;;;;;;4995079;28;20120;-60
2022/11/08 11:23:50;;;;;;;22.15;15.88;;;24.60;95.70;;;;;;5028479;28;20541;-57
2022/11/08 11:26:27;;;;;;;18.90;15.82;;;25.40;95.70;;;;;;5011094;28;20038;-58
2022/11/08 11:29:04;;;;;;;18.70;15.93;;;25.70;94.40;;;;;;5018697;28;20133;-60
2022/11/08 11:31:31;;;;;;;18.70;16.17;;;25.50;93.80;;;;;;5025351;28;20487;-62
2022/11/08 11:33:57;;;;;;;18.95;14.95;;;24.20;94.80;;;;;;5037309;28;20032;-57
2022/11/08 11:36:25;;;;;;;19.23;16.10;;;;;;;;;;5082841;28;20027;-56
2022/11/08 11:39:00;;;;;;;18.83;15.40;;;22.30;97.10;;;;;;5031356;28;20504;-56
2022/11/08 11:41:30;;;;;;;25.02;17.23;;;;;;;;;;5080447;28;20360;-58
2022/11/08 11:43:59;;;;;;;21.42;17.67;;;21.10;99.90;;;;;;5080722;28;20040;-52
2022/11/08 11:46:32;;;;;;;20.70;17.13;;;21.40;98.20;;;;;;5077992;28;20063;-51
2022/11/08 11:49:00;;;;;;;20.52;15.13;;;;;;;;;;5075250;28;20048;-58
2022/11/08 11:51:29;;;;;;;21.63;16.55;;;;;;;;;;5081496;28;20055;-56
2022/11/08 11:53:57;;;;;;;21.70;13.88;;;22.70;98.10;;;;;;5078792;28;20024;-53
2022/11/08 11:56:31;;;;;;;19.48;13.95;;;22.70;98.60;;;;;;5083090;28;20020;-56
2022/11/08 11:59:18;;;;;;;16.77;13.75;;;23.00;98.30;;;;;;5068540;28;20119;-63
2022/11/08 12:01:52;;;;;;;19.55;13.82;;;22.90;97.60;;;;;;5072660;28;20033;-57
2022/11/08 12:05:05;;;;;;;18.67;15.13;;;22.60;97.80;;;;;;5074963;28;20531;-58
2022/11/08 12:07:33;;;;;;;21.70;16.38;;;;;;;;;;5026730;28;20397;-59
2022/11/08 12:10:25;;;;;;;22.98;16.90;;;22.10;99.50;;;;;;5025332;28;20048;-53
2022/11/08 12:13:08;;;;;;;27.10;17.58;;;21.90;98.90;;;;;;5022893;28;20045;-54
2022/11/08 12:15:53;;;;;;;37.55;24.48;;;21.50;99.70;;;;;;4980417;28;20045;-52
2022/11/08 12:18:30;;;;;;;39.08;24.65;;;;;;;;;;4995309;28;20049;-53
2022/11/08 12:21:01;;;;;;;33.10;22.60;;;;;;;;;;5024675;28;20123;-53
2022/11/08 12:23:40;;;;;;;24.88;17.45;;;;;;;;;;5026024;28;20477;-57
2022/11/08 12:26:05;;;;;;;23.40;19.08;;;21.10;99.90;;;;;;5027107;28;20037;-56
2022/11/08 12:28:34;;;;;;;25.35;17.50;;;20.70;99.90;;;;;;5026944;28;20033;-53
2022/11/08 12:31:25;;;;;;;26.90;17.70;;;20.40;99.90;;;;;;5027425;28;20393;-48
2022/11/08 12:34:21;;;;;;;21.00;16.38;;;20.10;99.90;;;;;;5021802;28;20132;-52
2022/11/08 12:37:04;;;;;;;21.80;17.52;;;19.80;99.90;;;;;;5027182;28;20043;-51
2022/11/08 12:39:47;;;;;;;21.25;15.75;;;19.80;99.90;;;;;;5068997;28;20032;-52
2022/11/08 12:42:50;;;;;;;20.55;16.00;;;19.70;99.90;;;;;;5074035;28;20064;-54
2022/11/08 12:45:38;;;;;;;24.90;17.33;;;19.60;99.90;;;;;;5074527;28;20047;-56
2022/11/08 12:48:24;;;;;;;23.70;16.90;;;19.90;99.90;;;;;;5072467;28;20036;-57
2022/11/08 12:51:06;;;;;;;22.42;16.73;;;19.90;99.90;;;;;;5075344;28;20224;-56
2022/11/08 12:53:50;;;;;;;19.70;16.23;;;19.90;99.90;;;;;;5074475;28;20403;-56
2022/11/08 12:56:25;;;;;;;22.33;16.70;;;19.90;99.90;;;;;;5071023;28;20024;-56
2022/11/08 12:58:53;;;;;;;23.20;17.67;;;19.70;99.90;;;;;;5071398;28;20073;-54
2022/11/08 13:01:20;;;;;;;20.85;17.55;;;;;;;;;;5077197;28;20159;-55
2022/11/08 13:04:05;;;;;;;23.50;17.33;;;;;;;;;;5076280;28;20035;-54
2022/11/08 13:06:33;;;;;;;20.38;16.55;;;19.30;99.90;;;;;;5077013;28;20039;-54
2022/11/08 13:09:07;;;;;;;23.20;16.83;;;;;;;;;;5073983;28;20021;-54
2022/11/08 13:11:40;;;;;;;25.20;18.92;;;;;;;;;;5086402;28;20123;-54
2022/11/08 13:14:12;;;;;;;28.38;19.58;;;;;;;;;;5075070;28;20093;-54